Time;durP1;ratioP1;P1;durP2;ratioP2;P2;SDS_P1;SDS_P2;PMS_P1;PMS_P2;Temp;Humidity;BMP_temperature;BMP_pressure;BME280_temperature;BME280_humidity;BME280_pressure;Samples;Min_cycle;Max_cycle;Signal;HPM_P1;HPM_P2
2020/12/20 00:02:08;;;;;;;0.75;0.30;;;20.40;43.90;;;;;;5047994;28;20021;-43
2020/12/20 00:04:34;;;;;;;0.65;0.28;;;20.40;43.90;;;;;;5048258;28;20477;-44
2020/12/20 00:07:00;;;;;;;0.60;0.30;;;20.40;43.90;;;;;;5048393;28;20119;-40
2020/12/20 00:09:25;;;;;;;0.43;0.20;;;20.40;43.90;;;;;;5049880;28;20476;-43
2020/12/20 00:11:53;;;;;;;1.88;0.30;;;20.40;43.90;;;;;;5048812;28;20115;-47
2020/12/20 00:14:28;;;;;;;0.70;0.20;;;20.40;43.90;;;;;;5049774;28;20029;-40
2020/12/20 00:17:04;;;;;;;0.63;0.30;;;20.40;43.80;;;;;;5047588;28;20052;-44
2020/12/20 00:19:31;;;;;;;0.63;0.30;;;20.40;43.90;;;;;;5029424;28;20104;-42
2020/12/20 00:21:59;;;;;;;0.70;0.30;;;20.40;43.90;;;;;;5025893;28;20048;-44
2020/12/20 00:24:25;;;;;;;0.80;0.30;;;20.40;43.90;;;;;;5033688;28;20029;-45
2020/12/20 00:26:51;;;;;;;0.60;0.30;;;20.40;43.80;;;;;;5046120;28;20029;-47
2020/12/20 00:29:17;;;;;;;0.65;0.30;;;20.40;43.90;;;;;;5048662;28;20098;-44
2020/12/20 00:31:42;;;;;;;0.75;0.20;;;20.30;43.90;;;;;;5048992;28;20482;-42
2020/12/20 00:34:08;;;;;;;0.52;0.22;;;20.40;43.90;;;;;;5043154;28;20033;-43
2020/12/20 00:36:34;;;;;;;1.00;0.32;;;20.30;43.90;;;;;;5043681;28;20025;-46
2020/12/20 00:39:01;;;;;;;0.90;0.30;;;20.30;43.90;;;;;;5049587;28;20335;-40
2020/12/20 00:41:26;;;;;;;0.55;0.20;;;20.30;44.40;;;;;;5039652;28;20021;-43
2020/12/20 00:43:52;;;;;;;0.70;0.20;;;20.30;43.90;;;;;;5022989;28;20033;-46
2020/12/20 00:46:17;;;;;;;0.60;0.30;;;20.30;43.90;;;;;;5023270;28;20413;-45
2020/12/20 00:48:43;;;;;;;0.77;0.20;;;20.30;43.90;;;;;;5044753;28;20108;-44
2020/12/20 00:51:09;;;;;;;0.98;0.30;;;20.30;44.00;;;;;;5048416;28;20160;-45
2020/12/20 00:53:38;;;;;;;1.50;0.30;;;20.30;44.00;;;;;;5046631;28;20532;-43
2020/12/20 00:56:05;;;;;;;0.70;0.32;;;20.30;44.00;;;;;;5045134;28;20025;-42
2020/12/20 00:58:34;;;;;;;1.10;0.40;;;20.30;44.00;;;;;;5048619;28;20035;-46
2020/12/20 01:01:01;;;;;;;0.55;0.20;;;20.30;43.90;;;;;;5034627;28;20132;-44
2020/12/20 01:03:27;;;;;;;0.82;0.30;;;20.30;43.90;;;;;;5030452;28;20104;-45
2020/12/20 01:05:53;;;;;;;0.60;0.20;;;20.30;44.00;;;;;;5047930;28;20025;-47
2020/12/20 01:08:18;;;;;;;0.88;0.30;;;20.30;43.90;;;;;;5030434;28;20043;-42
2020/12/20 01:10:44;;;;;;;0.43;0.20;;;20.30;44.00;;;;;;5046845;28;20024;-45
2020/12/20 01:13:09;;;;;;;0.50;0.20;;;20.30;44.00;;;;;;5048608;28;20021;-43
2020/12/20 01:15:35;;;;;;;0.75;0.30;;;20.30;44.00;;;;;;5047327;28;20033;-42
2020/12/20 01:18:00;;;;;;;1.10;0.30;;;20.30;44.50;;;;;;5046689;28;20070;-44
2020/12/20 01:20:26;;;;;;;0.77;0.28;;;20.30;44.00;;;;;;5048449;28;20040;-45
2020/12/20 01:22:52;;;;;;;0.68;0.20;;;20.20;44.10;;;;;;5048652;28;20067;-48
2020/12/20 01:25:17;;;;;;;0.65;0.20;;;20.20;44.00;;;;;;5047009;28;20017;-47
2020/12/20 01:27:43;;;;;;;0.73;0.30;;;20.30;44.00;;;;;;5031068;28;20056;-45
2020/12/20 01:30:09;;;;;;;0.52;0.30;;;20.30;44.00;;;;;;5042593;28;20032;-44
2020/12/20 01:32:35;;;;;;;1.95;0.30;;;20.20;44.00;;;;;;5047721;28;20025;-44
2020/12/20 01:35:01;;;;;;;0.60;0.25;;;20.20;44.00;;;;;;5047163;28;20363;-42
2020/12/20 01:37:26;;;;;;;0.45;0.20;;;20.20;44.10;;;;;;5048566;28;20029;-42
2020/12/20 01:39:52;;;;;;;0.63;0.30;;;20.20;44.00;;;;;;5047751;28;20029;-44
2020/12/20 01:42:17;;;;;;;1.45;0.30;;;20.20;44.00;;;;;;5048097;28;20025;-47
2020/12/20 01:44:43;;;;;;;0.50;0.20;;;20.20;44.00;;;;;;5043835;28;20021;-43
2020/12/20 01:47:09;;;;;;;0.40;0.20;;;20.20;44.10;;;;;;5039320;28;20607;-44
2020/12/20 01:49:35;;;;;;;0.70;0.30;;;20.20;44.00;;;;;;5040971;28;20489;-45
2020/12/20 01:52:01;;;;;;;2.28;0.35;;;20.20;44.10;;;;;;5048063;28;20094;-44
2020/12/20 01:54:27;;;;;;;0.70;0.38;;;20.20;44.00;;;;;;5047298;28;20025;-45
2020/12/20 01:56:53;;;;;;;0.52;0.20;;;20.20;43.90;;;;;;5046474;28;20013;-44
2020/12/20 01:59:20;;;;;;;0.60;0.30;;;20.20;44.00;;;;;;5046899;28;20100;-42
2020/12/20 02:01:45;;;;;;;0.95;0.32;;;20.20;44.10;;;;;;5041525;28;20104;-43
2020/12/20 02:04:11;;;;;;;0.88;0.30;;;20.20;44.00;;;;;;5047710;28;20096;-44
2020/12/20 02:06:38;;;;;;;0.60;0.20;;;20.20;44.00;;;;;;5045650;28;20029;-44
2020/12/20 02:09:04;;;;;;;0.65;0.25;;;20.20;44.00;;;;;;5048565;28;20449;-45
2020/12/20 02:11:30;;;;;;;0.50;0.20;;;20.20;44.00;;;;;;5047452;28;20103;-45
2020/12/20 02:13:56;;;;;;;0.65;0.40;;;20.20;44.00;;;;;;5047103;28;20448;-45
2020/12/20 02:16:22;;;;;;;0.50;0.30;;;20.20;44.10;;;;;;5026642;28;20067;-43
2020/12/20 02:21:23;;;;;;;0.70;0.20;;;20.20;44.10;;;;;;5066502;28;20032;-42
2020/12/20 02:23:50;;;;;;;0.88;0.20;;;20.20;44.10;;;;;;5068425;28;20048;-44
2020/12/20 02:26:19;;;;;;;0.90;0.20;;;20.20;44.10;;;;;;5011926;28;20377;-44
2020/12/20 02:28:49;;;;;;;0.70;0.20;;;20.10;44.00;;;;;;5052604;28;20028;-45
2020/12/20 02:31:15;;;;;;;0.63;0.20;;;20.10;44.10;;;;;;5069473;28;20100;-43
2020/12/20 02:33:40;;;;;;;0.80;0.40;;;20.10;44.10;;;;;;5071765;28;20024;-42
2020/12/20 02:36:06;;;;;;;0.60;0.20;;;20.10;44.10;;;;;;5064614;28;20085;-44
2020/12/20 02:38:32;;;;;;;0.60;0.30;;;20.10;44.00;;;;;;5066546;28;20028;-44
2020/12/20 02:40:57;;;;;;;0.50;0.20;;;20.10;44.10;;;;;;5065364;28;20329;-43
2020/12/20 02:43:23;;;;;;;1.25;0.20;;;20.20;44.10;;;;;;5064719;28;20057;-44
2020/12/20 02:45:49;;;;;;;0.60;0.30;;;20.20;44.10;;;;;;5062780;28;20101;-43
2020/12/20 02:48:14;;;;;;;1.80;0.30;;;20.10;44.10;;;;;;5073496;28;20024;-43
2020/12/20 02:50:40;;;;;;;0.57;0.20;;;20.10;44.00;;;;;;5064247;28;20142;-43
2020/12/20 02:53:06;;;;;;;0.80;0.20;;;20.20;44.10;;;;;;5060705;28;20037;-44
2020/12/20 02:55:31;;;;;;;0.38;0.20;;;20.10;44.10;;;;;;5069094;28;20028;-43
2020/12/20 02:57:57;;;;;;;0.45;0.20;;;20.10;44.10;;;;;;5070558;28;20029;-42
2020/12/20 03:00:23;;;;;;;0.47;0.20;;;20.10;44.00;;;;;;5071866;28;20082;-44
2020/12/20 03:02:48;;;;;;;0.52;0.20;;;20.10;44.10;;;;;;5073096;28;20477;-44
2020/12/20 03:05:17;;;;;;;0.63;0.30;;;20.10;44.10;;;;;;5069735;28;20105;-43
2020/12/20 03:07:43;;;;;;;0.50;0.20;;;20.10;44.10;;;;;;5053722;28;20028;-44
2020/12/20 03:10:09;;;;;;;0.60;0.20;;;20.10;44.10;;;;;;5058743;28;20338;-43
2020/12/20 03:12:34;;;;;;;0.50;0.20;;;20.10;44.10;;;;;;5074129;28;20016;-43
2020/12/20 03:15:00;;;;;;;0.35;0.13;;;20.10;44.10;;;;;;5071017;28;20028;-44
2020/12/20 03:17:25;;;;;;;0.80;0.10;;;20.10;44.10;;;;;;5071299;28;20084;-44
2020/12/20 03:19:51;;;;;;;0.38;0.10;;;20.10;44.20;;;;;;5061964;28;20048;-44
2020/12/20 03:22:16;;;;;;;0.55;0.20;;;20.10;44.20;;;;;;5072997;28;20052;-44
2020/12/20 03:24:42;;;;;;;0.45;0.20;;;20.10;44.20;;;;;;5064825;28;20461;-43
2020/12/20 03:27:08;;;;;;;0.70;0.20;;;20.10;44.10;;;;;;5072978;28;20033;-42
2020/12/20 03:29:33;;;;;;;0.95;0.30;;;20.10;44.10;;;;;;5071028;28;20020;-43
2020/12/20 03:31:59;;;;;;;1.02;0.40;;;20.10;44.10;;;;;;5064604;28;20200;-43
2020/12/20 03:34:24;;;;;;;0.43;0.20;;;20.10;44.10;;;;;;5058684;28;20037;-43
2020/12/20 03:36:50;;;;;;;1.08;0.20;;;20.10;44.10;;;;;;5067621;28;20040;-43
2020/12/20 03:39:16;;;;;;;0.50;0.20;;;20.10;44.10;;;;;;5070493;28;20033;-44
2020/12/20 03:41:42;;;;;;;0.43;0.25;;;20.10;44.20;;;;;;5072110;28;20036;-44
2020/12/20 03:44:07;;;;;;;0.82;0.22;;;20.10;44.10;;;;;;5061844;28;20033;-45
2020/12/20 03:46:33;;;;;;;1.15;0.30;;;20.10;44.10;;;;;;5066376;28;20028;-44
2020/12/20 03:48:59;;;;;;;0.63;0.20;;;20.10;44.10;;;;;;5070301;28;20073;-43
2020/12/20 03:51:24;;;;;;;2.13;0.20;;;20.10;44.20;;;;;;5072167;28;20055;-44
2020/12/20 03:53:50;;;;;;;0.50;0.20;;;20.10;44.20;;;;;;5072618;28;22119;-43
2020/12/20 03:56:16;;;;;;;0.50;0.20;;;20.10;44.20;;;;;;5072147;28;20632;-43
2020/12/20 03:58:41;;;;;;;0.60;0.22;;;20.10;44.20;;;;;;5071225;28;20492;-43
2020/12/20 04:01:07;;;;;;;0.60;0.20;;;20.00;44.20;;;;;;5064599;28;20025;-43
2020/12/20 04:03:32;;;;;;;0.60;0.20;;;20.00;44.20;;;;;;5060396;28;20035;-43
2020/12/20 04:05:58;;;;;;;0.80;0.20;;;20.10;44.20;;;;;;5043765;28;20056;-44
2020/12/20 04:08:23;;;;;;;0.47;0.20;;;20.10;44.20;;;;;;5063403;28;20025;-44
2020/12/20 04:10:49;;;;;;;0.47;0.20;;;20.00;44.20;;;;;;5071183;28;20025;-44
2020/12/20 04:13:14;;;;;;;0.70;0.20;;;20.00;44.20;;;;;;5072352;28;20055;-44
2020/12/20 04:15:40;;;;;;;0.68;0.20;;;20.00;44.30;;;;;;5058143;28;20028;-42
2020/12/20 04:18:05;;;;;;;0.57;0.30;;;20.00;44.20;;;;;;5066816;28;20028;-43
2020/12/20 04:20:31;;;;;;;0.77;0.20;;;20.00;44.30;;;;;;5059023;28;20039;-43
2020/12/20 04:22:56;;;;;;;0.57;0.30;;;20.00;44.30;;;;;;5061480;28;20029;-44
2020/12/20 04:25:22;;;;;;;0.47;0.28;;;20.00;44.30;;;;;;5059605;28;20074;-44
2020/12/20 04:27:48;;;;;;;0.47;0.20;;;20.00;44.30;;;;;;5072424;28;20050;-43
2020/12/20 04:30:14;;;;;;;0.50;0.20;;;20.00;44.30;;;;;;5072199;28;20028;-43
2020/12/20 04:32:40;;;;;;;0.40;0.20;;;20.00;44.30;;;;;;5069238;28;20032;-44
2020/12/20 04:35:06;;;;;;;0.50;0.20;;;20.00;44.40;;;;;;5068086;28;20025;-43
2020/12/20 04:37:32;;;;;;;0.40;0.20;;;20.00;44.30;;;;;;5053161;28;20024;-42
2020/12/20 04:39:57;;;;;;;0.35;0.20;;;20.00;44.30;;;;;;5050965;28;20028;-44
2020/12/20 04:42:25;;;;;;;0.50;0.20;;;20.00;44.30;;;;;;5064188;28;20433;-43
2020/12/20 04:44:52;;;;;;;0.28;0.10;;;20.00;44.40;;;;;;5058454;28;20059;-44
2020/12/20 04:47:18;;;;;;;0.70;0.20;;;20.00;44.40;;;;;;5062937;28;20025;-42
2020/12/20 04:49:46;;;;;;;0.82;0.20;;;20.00;44.30;;;;;;5068453;28;20357;-45
2020/12/20 04:52:11;;;;;;;0.50;0.30;;;20.00;44.30;;;;;;5068044;28;20031;-44
2020/12/20 04:54:39;;;;;;;0.70;0.20;;;20.00;44.30;;;;;;5045646;28;20108;-44
2020/12/20 04:57:06;;;;;;;0.70;0.20;;;20.00;44.40;;;;;;5068155;28;20074;-44
2020/12/20 04:59:35;;;;;;;0.70;0.20;;;20.00;44.40;;;;;;5068559;28;20063;-44
2020/12/20 05:02:01;;;;;;;0.40;0.20;;;20.00;44.30;;;;;;5071147;28;20477;-44
2020/12/20 05:04:26;;;;;;;0.63;0.30;;;20.00;44.30;;;;;;5060444;28;20036;-44
2020/12/20 05:06:52;;;;;;;0.73;0.17;;;20.00;44.30;;;;;;5069228;28;20029;-43
2020/12/20 05:09:17;;;;;;;0.60;0.20;;;19.90;44.30;;;;;;5069214;28;20017;-42
2020/12/20 05:11:43;;;;;;;0.60;0.20;;;19.90;44.30;;;;;;5071060;28;20035;-42
2020/12/20 05:14:12;;;;;;;0.50;0.20;;;19.90;44.30;;;;;;5056685;28;20033;-42
2020/12/20 05:16:39;;;;;;;0.45;0.15;;;19.90;44.30;;;;;;5065428;28;20051;-44
2020/12/20 05:19:07;;;;;;;0.55;0.25;;;19.90;44.30;;;;;;5062682;28;20021;-43
2020/12/20 05:21:33;;;;;;;0.43;0.20;;;19.90;44.30;;;;;;5053686;28;20037;-44
2020/12/20 05:24:20;;;;;;;0.60;0.20;;;19.90;44.30;;;;;;5063834;28;20028;-44
2020/12/20 05:26:45;;;;;;;1.55;0.25;;;20.00;44.40;;;;;;5051920;28;20041;-43
2020/12/20 05:29:13;;;;;;;0.73;0.10;;;19.90;44.40;;;;;;5052316;28;20516;-41
2020/12/20 05:31:39;;;;;;;0.52;0.20;;;20.00;44.30;;;;;;5064958;28;20028;-43
2020/12/20 05:34:05;;;;;;;0.43;0.20;;;19.90;44.30;;;;;;5066016;28;20032;-43
2020/12/20 05:36:31;;;;;;;0.40;0.15;;;19.90;44.30;;;;;;5060034;28;20491;-42
2020/12/20 05:39:14;;;;;;;0.25;0.10;;;19.90;44.40;;;;;;5067245;28;20024;-43
2020/12/20 05:41:39;;;;;;;0.70;0.30;;;19.90;44.40;;;;;;5067673;28;20469;-43
2020/12/20 05:44:20;;;;;;;0.65;0.20;;;19.90;44.40;;;;;;5068756;28;20062;-43
2020/12/20 05:46:47;;;;;;;0.47;0.30;;;19.90;44.40;;;;;;5067414;28;20082;-43
2020/12/20 05:49:18;;;;;;;0.45;0.20;;;19.90;44.30;;;;;;5060056;28;20182;-43
2020/12/20 05:52:04;;;;;;;0.50;0.20;;;19.90;44.40;;;;;;5069178;28;20139;-43
2020/12/20 05:54:41;;;;;;;0.98;0.20;;;19.90;44.40;;;;;;5057958;28;20039;-42
2020/12/20 05:57:11;;;;;;;0.40;0.20;;;19.90;44.40;;;;;;5042899;28;20024;-43
2020/12/20 05:59:37;;;;;;;0.40;0.15;;;19.90;44.40;;;;;;5057025;28;20016;-42
2020/12/20 06:02:04;;;;;;;0.50;0.20;;;19.90;44.40;;;;;;5059329;28;20054;-42
2020/12/20 06:04:31;;;;;;;0.30;0.10;;;19.90;44.40;;;;;;5053503;28;20045;-44
2020/12/20 06:06:58;;;;;;;1.77;0.30;;;19.90;44.40;;;;;;5052629;28;20509;-42
2020/12/20 06:09:27;;;;;;;0.68;0.20;;;19.90;44.40;;;;;;5060923;28;20024;-43
2020/12/20 06:11:55;;;;;;;0.60;0.25;;;19.90;44.40;;;;;;5057005;28;20370;-42
2020/12/20 06:14:24;;;;;;;1.48;0.30;;;19.90;44.40;;;;;;5064619;28;20024;-43
2020/12/20 06:17:22;;;;;;;0.50;0.20;;;19.90;44.40;;;;;;5070335;28;20538;-43
2020/12/20 06:19:49;;;;;;;0.50;0.20;;;19.80;44.40;;;;;;5064620;28;20047;-43
2020/12/20 06:22:19;;;;;;;0.40;0.17;;;19.90;44.40;;;;;;5069781;28;20033;-43
2020/12/20 06:24:50;;;;;;;0.40;0.20;;;19.80;44.40;;;;;;5060106;28;20085;-44
2020/12/20 06:27:17;;;;;;;1.00;0.20;;;19.90;44.40;;;;;;5051244;28;20024;-42
2020/12/20 06:29:48;;;;;;;0.50;0.20;;;19.80;44.40;;;;;;5059703;28;20029;-43
2020/12/20 06:32:19;;;;;;;0.70;0.30;;;19.90;44.40;;;;;;5063365;28;20058;-44
2020/12/20 06:34:45;;;;;;;0.60;0.20;;;19.90;44.40;;;;;;5055850;28;20287;-43
2020/12/20 06:37:12;;;;;;;0.90;0.20;;;19.90;44.30;;;;;;5063978;28;20377;-43
2020/12/20 06:39:41;;;;;;;0.82;0.20;;;19.90;44.20;;;;;;5070419;28;20037;-44
2020/12/20 06:42:07;;;;;;;1.20;0.28;;;19.90;44.30;;;;;;5063297;28;20096;-44
2020/12/20 06:44:33;;;;;;;0.50;0.20;;;19.90;44.30;;;;;;5050358;28;20445;-44
2020/12/20 06:46:59;;;;;;;0.60;0.20;;;19.90;44.40;;;;;;5070311;28;20423;-44
2020/12/20 06:49:39;;;;;;;0.47;0.20;;;19.80;44.30;;;;;;5062213;28;20025;-43
2020/12/20 06:52:22;;;;;;;0.30;0.10;;;19.80;44.30;;;;;;5067451;28;20085;-43
2020/12/20 06:55:11;;;;;;;0.60;0.22;;;19.80;44.40;;;;;;5055521;28;20030;-44
2020/12/20 06:58:01;;;;;;;0.50;0.15;;;19.80;44.40;;;;;;5068520;28;20025;-44
2020/12/20 07:00:47;;;;;;;0.85;0.17;;;19.80;44.40;;;;;;5035485;28;20029;-44
2020/12/20 07:03:23;;;;;;;0.50;0.20;;;19.80;44.40;;;;;;5058024;28;20380;-43
2020/12/20 07:05:50;;;;;;;0.60;0.20;;;19.80;44.40;;;;;;5068701;28;20028;-42
2020/12/20 07:08:23;;;;;;;0.40;0.13;;;19.80;44.40;;;;;;5040366;28;20300;-43
2020/12/20 07:11:06;;;;;;;0.50;0.20;;;19.80;44.40;;;;;;5055263;28;20398;-42
2020/12/20 07:13:38;;;;;;;0.68;0.10;;;19.80;44.40;;;;;;5067082;28;20029;-42
2020/12/20 07:16:03;;;;;;;;;;;19.80;44.50;;;;;;5064350;28;20480;-43
2020/12/20 07:18:50;;;;;;;0.40;0.15;;;19.80;44.40;;;;;;5068602;28;19948;-43
2020/12/20 07:21:18;;;;;;;0.30;0.20;;;19.80;44.50;;;;;;5067701;28;20029;-43
2020/12/20 07:23:47;;;;;;;0.57;0.20;;;19.80;44.50;;;;;;5067744;28;20029;-43
2020/12/20 07:26:12;;;;;;;1.48;0.40;;;19.80;44.50;;;;;;5062235;28;20028;-42
2020/12/20 07:28:38;;;;;;;1.55;0.30;;;19.80;44.40;;;;;;5069181;28;20024;-42
2020/12/20 07:31:11;;;;;;;0.77;0.20;;;19.80;44.50;;;;;;5066351;28;20032;-44
2020/12/20 07:33:37;;;;;;;0.57;0.20;;;19.80;44.50;;;;;;5073287;28;20037;-43
2020/12/20 07:36:04;;;;;;;0.45;0.20;;;19.80;44.60;;;;;;5071345;28;20059;-43
2020/12/20 07:38:30;;;;;;;1.13;0.13;;;19.70;44.70;;;;;;5039841;28;20033;-43
2020/12/20 07:40:56;;;;;;;0.40;0.10;;;19.80;44.80;;;;;;5058861;28;20027;-43
2020/12/20 07:43:21;;;;;;;0.43;0.20;;;19.80;45.00;;;;;;5070587;28;20480;-43
2020/12/20 07:46:06;;;;;;;1.70;0.28;;;19.80;45.30;;;;;;5072205;28;20028;-43
2020/12/20 07:48:32;;;;;;;0.57;0.10;;;19.70;45.40;;;;;;5069928;28;20478;-43
2020/12/20 07:51:14;;;;;;;1.65;0.25;;;19.80;44.90;;;;;;5071918;28;20062;-42
2020/12/20 07:53:47;;;;;;;1.00;0.20;;;19.80;45.20;;;;;;5072414;28;20550;-41
2020/12/20 07:56:23;;;;;;;0.52;0.10;;;19.80;45.30;;;;;;5069868;28;20043;-42
2020/12/20 07:58:49;;;;;;;1.02;0.40;;;19.70;45.30;;;;;;5060785;28;20107;-42
2020/12/20 08:01:15;;;;;;;1.17;0.28;;;19.70;45.30;;;;;;5070870;28;20032;-42
2020/12/20 08:03:40;;;;;;;1.30;0.30;;;19.70;45.30;;;;;;5053537;28;20025;-42
2020/12/20 08:06:11;;;;;;;0.70;0.30;;;19.70;45.10;;;;;;5067001;28;20020;-43
2020/12/20 08:08:38;;;;;;;2.60;0.10;;;19.80;45.10;;;;;;5065845;28;20051;-42
2020/12/20 08:11:27;;;;;;;0.70;0.10;;;19.80;45.00;;;;;;5068081;28;20095;-42
2020/12/20 08:14:05;;;;;;;0.45;0.20;;;19.80;44.90;;;;;;5059578;28;20024;-43
2020/12/20 08:16:32;;;;;;;2.63;0.30;;;19.80;44.90;;;;;;5067860;28;20067;-42
2020/12/20 08:19:00;;;;;;;0.68;0.30;;;19.80;44.90;;;;;;5062593;28;20359;-42
2020/12/20 08:21:37;;;;;;;0.77;0.22;;;19.70;44.80;;;;;;5059113;28;20033;-43
2020/12/20 08:24:03;;;;;;;0.60;0.30;;;19.80;44.90;;;;;;5037342;28;20017;-42
2020/12/20 08:26:31;;;;;;;1.00;0.30;;;19.80;44.90;;;;;;5069482;28;20039;-42
2020/12/20 08:28:57;;;;;;;0.90;0.30;;;19.80;44.80;;;;;;5063859;28;20027;-42
2020/12/20 08:31:26;;;;;;;0.47;0.20;;;19.80;44.80;;;;;;5056774;28;20489;-44
2020/12/20 08:33:51;;;;;;;0.82;0.20;;;19.80;44.70;;;;;;5058482;28;20029;-42
2020/12/20 08:36:20;;;;;;;1.10;0.30;;;19.80;44.70;;;;;;5039840;28;20094;-42
2020/12/20 08:38:46;;;;;;;1.05;0.30;;;19.80;44.70;;;;;;5057255;28;20028;-42
2020/12/20 08:41:25;;;;;;;1.08;0.30;;;19.80;44.60;;;;;;5055420;28;20431;-43
2020/12/20 08:44:14;;;;;;;0.70;0.20;;;19.80;44.60;;;;;;5057409;28;20020;-42
2020/12/20 08:46:44;;;;;;;1.02;0.30;;;19.80;44.60;;;;;;5053733;28;20092;-42
2020/12/20 08:49:13;;;;;;;1.33;0.20;;;19.80;44.60;;;;;;5066533;28;20024;-43
2020/12/20 08:51:39;;;;;;;0.93;0.40;;;19.80;44.50;;;;;;5068203;28;20099;-42
2020/12/20 08:54:05;;;;;;;1.00;0.30;;;19.80;44.50;;;;;;5067701;28;20108;-43
2020/12/20 08:56:30;;;;;;;1.10;0.50;;;19.80;44.50;;;;;;5066817;28;20489;-42
2020/12/20 08:58:58;;;;;;;1.35;0.50;;;19.80;44.50;;;;;;5066550;28;20028;-43
2020/12/20 09:01:26;;;;;;;0.77;0.28;;;19.80;44.50;;;;;;5063578;28;20062;-42
2020/12/20 09:03:53;;;;;;;0.77;0.40;;;19.80;44.40;;;;;;5069265;28;20078;-42
2020/12/20 09:06:19;;;;;;;0.82;0.45;;;19.90;44.40;;;;;;5069285;28;20104;-42
2020/12/20 09:08:44;;;;;;;0.90;0.40;;;19.80;44.40;;;;;;5069033;28;20524;-42
2020/12/20 09:11:26;;;;;;;0.70;0.40;;;19.90;44.40;;;;;;5067420;28;20373;-42
2020/12/20 09:13:52;;;;;;;1.00;0.40;;;19.80;44.40;;;;;;5066043;28;20029;-41
2020/12/20 09:16:18;;;;;;;1.35;0.52;;;19.90;44.40;;;;;;5065658;28;20137;-40
2020/12/20 09:18:43;;;;;;;0.80;0.20;;;19.90;44.40;;;;;;5069541;28;20380;-42
2020/12/20 09:21:09;;;;;;;0.98;0.38;;;19.90;44.30;;;;;;5046965;28;539053;-43
2020/12/20 09:23:34;;;;;;;1.17;0.30;;;19.90;44.30;;;;;;5060477;28;20086;-42
2020/12/20 09:26:04;;;;;;;1.27;0.40;;;19.90;44.30;;;;;;5047773;28;20572;-44
2020/12/20 09:28:32;;;;;;;0.77;0.30;;;19.90;44.20;;;;;;5071349;28;20459;-43
2020/12/20 09:31:00;;;;;;;0.77;0.40;;;19.90;44.20;;;;;;5064883;28;20036;-44
2020/12/20 09:33:28;;;;;;;0.95;0.28;;;19.90;44.20;;;;;;5051782;28;20452;-42
2020/12/20 09:35:58;;;;;;;1.33;0.30;;;19.90;44.20;;;;;;5057660;28;20040;-43
2020/12/20 09:38:26;;;;;;;0.65;0.35;;;19.90;44.20;;;;;;5068005;28;20051;-42
2020/12/20 09:41:05;;;;;;;1.25;0.50;;;19.90;44.10;;;;;;5059990;28;20028;-44
2020/12/20 09:43:31;;;;;;;1.85;0.30;;;19.90;44.10;;;;;;5059151;28;20791;-43
2020/12/20 09:45:57;;;;;;;0.90;0.50;;;19.90;44.10;;;;;;5060795;28;20029;-43
2020/12/20 09:48:23;;;;;;;0.52;0.30;;;19.90;44.10;;;;;;5049387;28;20048;-43
2020/12/20 09:50:49;;;;;;;2.00;0.30;;;19.90;44.10;;;;;;5070512;28;20048;-44
2020/12/20 09:53:15;;;;;;;0.82;0.30;;;20.00;44.10;;;;;;5070021;28;20031;-43
2020/12/20 09:55:43;;;;;;;0.85;0.40;;;19.90;44.10;;;;;;5067976;28;20063;-44
2020/12/20 09:58:14;;;;;;;0.93;0.40;;;19.90;44.10;;;;;;5037288;28;20144;-42
2020/12/20 10:00:41;;;;;;;0.70;0.30;;;20.00;44.10;;;;;;5065205;28;20040;-42
2020/12/20 10:03:06;;;;;;;1.08;0.40;;;20.00;44.10;;;;;;5051224;22;20478;-43
2020/12/20 10:05:33;;;;;;;2.17;0.55;;;19.90;44.10;;;;;;5026746;28;20032;-43
2020/12/20 10:07:59;;;;;;;0.88;0.40;;;19.90;44.00;;;;;;5010991;28;20179;-44
2020/12/20 10:10:25;;;;;;;1.90;0.60;;;19.90;44.00;;;;;;5018194;28;20116;-44
2020/12/20 10:12:50;;;;;;;1.15;0.52;;;20.00;44.10;;;;;;5026710;28;20021;-46
2020/12/20 10:15:17;;;;;;;0.70;0.40;;;20.00;44.00;;;;;;5028283;28;20032;-43
2020/12/20 10:17:43;;;;;;;0.93;0.63;;;20.00;44.00;;;;;;5025846;28;20143;-39
2020/12/20 10:20:09;;;;;;;1.05;0.50;;;20.00;44.00;;;;;;5032583;28;20416;-45
2020/12/20 10:22:34;;;;;;;0.68;0.43;;;20.00;44.00;;;;;;5034214;28;20032;-46
2020/12/20 10:25:00;;;;;;;0.85;0.50;;;20.00;44.00;;;;;;5027475;28;20029;-42
2020/12/20 10:27:25;;;;;;;1.33;0.40;;;20.00;44.00;;;;;;5026077;28;20038;-46
2020/12/20 10:29:51;;;;;;;1.27;0.60;;;20.00;43.90;;;;;;5026850;28;20022;-45
2020/12/20 10:32:16;;;;;;;1.45;0.50;;;20.00;44.00;;;;;;5026477;28;20021;-45
2020/12/20 10:34:42;;;;;;;4.00;0.70;;;20.00;44.00;;;;;;5028239;28;20512;-46
2020/12/20 10:37:08;;;;;;;1.50;0.93;;;20.00;44.00;;;;;;5026743;28;20383;-44
2020/12/20 10:39:33;;;;;;;1.05;0.57;;;20.00;44.00;;;;;;5028753;28;20271;-43
2020/12/20 10:41:59;;;;;;;0.90;0.52;;;20.00;44.00;;;;;;5025692;28;20426;-44
2020/12/20 10:44:25;;;;;;;1.75;0.80;;;20.00;44.00;;;;;;5010555;28;20014;-47
2020/12/20 10:46:51;;;;;;;1.00;0.52;;;20.00;44.00;;;;;;5021220;28;20038;-46
2020/12/20 10:49:18;;;;;;;1.70;0.80;;;20.00;44.00;;;;;;5024597;28;20018;-45
2020/12/20 10:51:49;;;;;;;0.80;0.50;;;20.00;44.00;;;;;;5027770;28;20710;-42
2020/12/20 10:54:15;;;;;;;1.27;0.70;;;20.00;44.00;;;;;;5026866;28;20463;-44
2020/12/20 10:56:41;;;;;;;1.65;0.60;;;20.00;44.00;;;;;;5027534;28;20043;-38
2020/12/20 10:59:06;;;;;;;1.42;0.80;;;20.00;44.00;;;;;;5026944;28;20033;-43
2020/12/20 11:01:32;;;;;;;1.70;0.80;;;20.00;44.00;;;;;;5025267;28;20075;-46
2020/12/20 11:03:57;;;;;;;1.35;0.60;;;20.00;44.00;;;;;;5027947;28;20037;-44
2020/12/20 11:06:24;;;;;;;1.92;0.77;;;20.00;44.00;;;;;;5030944;28;20025;-43
2020/12/20 11:08:51;;;;;;;1.25;0.90;;;20.00;43.90;;;;;;5031335;28;20359;-47
2020/12/20 11:11:17;;;;;;;0.80;0.60;;;20.10;43.80;;;;;;5031116;28;20021;-40
2020/12/20 11:13:44;;;;;;;1.73;0.50;;;20.10;43.70;;;;;;5012566;28;20037;-47
2020/12/20 11:16:17;;;;;;;1.52;0.73;;;20.10;43.70;;;;;;5029833;28;20402;-43
2020/12/20 11:18:44;;;;;;;1.90;0.93;;;20.10;43.60;;;;;;5024106;28;20046;-40
2020/12/20 11:21:13;;;;;;;1.88;1.10;;;20.10;43.60;;;;;;5030711;28;20029;-43
2020/12/20 11:23:40;;;;;;;1.20;0.98;;;20.10;43.70;;;;;;5032219;28;20084;-44
2020/12/20 11:26:12;;;;;;;1.95;1.10;;;20.10;43.80;;;;;;5009215;28;20022;-43
2020/12/20 11:28:39;;;;;;;1.40;1.30;;;20.00;43.80;;;;;;5030730;28;20667;-45
2020/12/20 11:31:05;;;;;;;2.58;1.08;;;20.00;43.90;;;;;;5030429;28;20544;-43
2020/12/20 11:33:31;;;;;;;1.40;0.95;;;20.00;43.90;;;;;;5012391;28;20037;-43
2020/12/20 11:35:56;;;;;;;2.22;1.10;;;20.00;44.00;;;;;;5027845;28;20041;-40
2020/12/20 11:38:23;;;;;;;2.13;0.88;;;20.00;44.00;;;;;;5030815;28;20481;-47
2020/12/20 11:40:49;;;;;;;1.98;0.95;;;20.00;44.00;;;;;;5028356;28;20045;-38
2020/12/20 11:43:15;;;;;;;1.92;0.98;;;20.00;44.00;;;;;;5021987;28;20041;-45
2020/12/20 11:45:40;;;;;;;1.90;1.08;;;20.00;44.00;;;;;;5012663;28;20415;-43
2020/12/20 11:48:06;;;;;;;2.55;1.30;;;20.00;44.00;;;;;;5030646;28;20041;-44
2020/12/20 11:50:32;;;;;;;1.40;0.90;;;20.00;44.10;;;;;;5029616;28;20061;-44
2020/12/20 11:52:58;;;;;;;1.58;1.20;;;20.00;44.10;;;;;;5029369;28;20040;-43
2020/12/20 11:55:23;;;;;;;2.00;0.85;;;20.00;44.10;;;;;;5027959;28;20116;-45
2020/12/20 11:57:49;;;;;;;1.48;0.90;;;20.00;44.10;;;;;;5031516;28;20471;-42
2020/12/20 12:00:14;;;;;;;2.03;0.93;;;20.00;44.10;;;;;;5028863;28;20033;-45
2020/12/20 12:02:40;;;;;;;1.58;1.25;;;20.00;44.10;;;;;;5029994;28;20040;-42
2020/12/20 12:05:05;;;;;;;1.40;0.85;;;20.00;44.10;;;;;;5023764;28;20037;-45
2020/12/20 12:07:31;;;;;;;1.30;0.52;;;20.00;44.10;;;;;;5021868;28;20108;-48
2020/12/20 12:09:56;;;;;;;1.17;0.77;;;20.00;44.10;;;;;;5003571;28;20401;-42
2020/12/20 12:12:25;;;;;;;1.63;1.00;;;20.00;44.20;;;;;;5022690;28;20041;-42
2020/12/20 12:14:50;;;;;;;1.50;1.00;;;20.00;44.20;;;;;;5021717;28;20057;-43
2020/12/20 12:17:17;;;;;;;1.10;0.75;;;20.00;44.20;;;;;;5022160;28;20065;-41
2020/12/20 12:19:43;;;;;;;2.03;0.80;;;20.00;44.20;;;;;;5023911;28;20044;-44
2020/12/20 12:22:08;;;;;;;2.03;0.95;;;20.00;44.20;;;;;;5021828;28;20025;-49
2020/12/20 12:24:34;;;;;;;1.55;0.85;;;20.00;44.20;;;;;;5024252;28;20461;-45
2020/12/20 12:26:59;;;;;;;1.65;0.93;;;20.00;44.20;;;;;;5029671;28;20077;-44
2020/12/20 12:29:25;;;;;;;1.60;0.65;;;20.00;44.20;;;;;;5012013;28;20041;-45
2020/12/20 12:31:51;;;;;;;1.40;0.85;;;20.00;44.20;;;;;;5008234;28;20040;-40
2020/12/20 12:34:16;;;;;;;2.15;0.90;;;20.00;44.20;;;;;;5026120;28;20029;-42
2020/12/20 12:36:42;;;;;;;2.22;0.95;;;20.00;44.20;;;;;;5029489;28;20521;-43
2020/12/20 12:39:09;;;;;;;1.60;0.93;;;20.00;44.20;;;;;;5028497;28;20087;-42
2020/12/20 12:41:35;;;;;;;1.83;1.00;;;20.00;44.30;;;;;;5029357;28;20180;-44
2020/12/20 12:44:00;;;;;;;1.35;0.60;;;20.00;44.20;;;;;;5026934;28;20539;-43
2020/12/20 12:46:26;;;;;;;1.52;0.70;;;20.00;44.20;;;;;;5034410;28;20346;-46
2020/12/20 12:48:52;;;;;;;1.60;0.77;;;20.00;44.20;;;;;;5033450;28;20098;-47
2020/12/20 12:51:24;;;;;;;1.80;0.60;;;20.00;44.20;;;;;;5018439;28;20155;-44
2020/12/20 12:53:50;;;;;;;1.88;0.68;;;20.00;44.20;;;;;;5009445;28;20100;-40